Time;durP1;ratioP1;P1;durP2;ratioP2;P2;SDS_P1;SDS_P2;PMS_P1;PMS_P2;Temp;Humidity;BMP_temperature;BMP_pressure;BME280_temperature;BME280_humidity;BME280_pressure;Samples;Min_cycle;Max_cycle;Signal;HPM_P1;HPM_P2
2024/01/12 00:02:07;;;;;;;73.53;30.65;;;-4.00;99.90;;;;;;4965829;28;20038;-72
2024/01/12 00:04:32;;;;;;;73.47;33.15;;;-4.00;99.90;;;;;;4967630;28;20794;-72
2024/01/12 00:06:58;;;;;;;72.20;30.50;;;-4.00;99.90;;;;;;4967637;28;20033;-72
2024/01/12 00:09:23;;;;;;;75.95;33.38;;;-4.00;99.90;;;;;;4966036;28;20058;-72
2024/01/12 00:11:49;;;;;;;79.90;33.65;;;-4.00;99.90;;;;;;4965169;28;20030;-72
2024/01/12 00:14:15;;;;;;;77.03;33.15;;;-4.10;99.90;;;;;;4962318;28;20122;-72
2024/01/12 00:16:44;;;;;;;85.20;35.83;;;-4.10;99.90;;;;;;4965933;28;20039;-72
2024/01/12 00:19:11;;;;;;;76.80;33.33;;;-4.10;99.90;;;;;;4964394;28;20109;-72
2024/01/12 00:21:36;;;;;;;80.18;33.90;;;-4.10;99.90;;;;;;4964825;28;20471;-72
2024/01/12 00:24:02;;;;;;;76.53;34.17;;;-4.10;99.90;;;;;;4961809;28;20042;-72
2024/01/12 00:26:28;;;;;;;85.70;36.50;;;-4.10;99.90;;;;;;4963135;28;20034;-72
2024/01/12 00:28:53;;;;;;;80.95;35.80;;;-4.20;99.90;;;;;;4967135;28;20029;-72
2024/01/12 00:31:19;;;;;;;82.35;37.75;;;-4.20;99.90;;;;;;4965693;28;20367;-72
2024/01/12 00:33:44;;;;;;;82.45;35.50;;;-4.20;99.90;;;;;;4967961;28;20205;-72
2024/01/12 00:36:11;;;;;;;82.80;36.25;;;-4.20;99.90;;;;;;4964678;28;20035;-72
2024/01/12 00:38:36;;;;;;;81.60;34.33;;;-4.20;99.90;;;;;;4968852;28;20034;-72
2024/01/12 00:41:03;;;;;;;82.65;35.30;;;-4.20;99.90;;;;;;4970652;28;20741;-72
2024/01/12 00:43:28;;;;;;;77.97;33.97;;;-4.30;99.90;;;;;;4970685;28;20031;-72
2024/01/12 00:45:54;;;;;;;73.57;34.08;;;-4.30;99.90;;;;;;4970134;28;20034;-72
2024/01/12 00:48:20;;;;;;;80.70;35.05;;;-4.40;99.90;;;;;;4966815;28;20426;-72
2024/01/12 00:50:46;;;;;;;81.43;35.03;;;-4.40;99.90;;;;;;4968239;28;20023;-72
2024/01/12 00:53:11;;;;;;;78.40;34.30;;;-4.40;99.90;;;;;;4969308;28;20494;-72
2024/01/12 00:55:37;;;;;;;76.13;34.40;;;-4.40;99.90;;;;;;4972078;28;20103;-72
2024/01/12 00:58:02;;;;;;;75.35;35.03;;;-4.40;99.90;;;;;;4968319;28;20062;-72
2024/01/12 01:00:30;;;;;;;82.70;34.50;;;-4.40;99.90;;;;;;4968390;28;20466;-72
2024/01/12 01:02:56;;;;;;;77.15;34.72;;;-4.40;99.90;;;;;;4981043;28;20054;-72
2024/01/12 01:05:21;;;;;;;74.13;33.65;;;-4.50;99.90;;;;;;4971310;28;20712;-72
2024/01/12 01:07:47;;;;;;;81.28;34.08;;;-4.50;99.90;;;;;;4970164;28;20485;-72
2024/01/12 01:10:13;;;;;;;74.97;32.90;;;-4.50;99.90;;;;;;4970358;28;20037;-72
2024/01/12 01:12:39;;;;;;;78.03;33.13;;;-4.60;99.90;;;;;;4965500;28;20166;-74
2024/01/12 01:15:06;;;;;;;78.57;32.58;;;-4.60;99.90;;;;;;4969358;28;20046;-73
2024/01/12 01:17:32;;;;;;;81.35;33.90;;;-4.60;99.90;;;;;;4968180;28;20030;-73
2024/01/12 01:19:58;;;;;;;78.03;32.60;;;-4.60;99.90;;;;;;4971867;28;21126;-73
2024/01/12 01:22:24;;;;;;;66.78;30.80;;;-4.60;99.90;;;;;;4969554;28;20026;-73
2024/01/12 01:24:50;;;;;;;72.57;31.48;;;-4.60;99.90;;;;;;4968810;28;20035;-73
2024/01/12 01:27:16;;;;;;;64.28;30.73;;;-4.60;99.90;;;;;;4966391;28;20504;-72
2024/01/12 01:29:42;;;;;;;65.43;29.88;;;-4.60;99.90;;;;;;4971192;28;20023;-72
2024/01/12 01:32:07;;;;;;;75.38;30.45;;;-4.60;99.90;;;;;;4965628;28;20106;-72
2024/01/12 01:34:33;;;;;;;71.53;31.67;;;-4.60;99.90;;;;;;4968385;28;20110;-72
2024/01/12 01:37:02;;;;;;;75.43;31.90;;;-4.60;99.90;;;;;;4969672;28;20024;-72
2024/01/12 01:39:28;;;;;;;70.10;30.25;;;-4.60;99.90;;;;;;4965117;28;20367;-72
2024/01/12 01:41:54;;;;;;;80.03;33.13;;;-4.50;99.90;;;;;;4968986;28;20114;-72
2024/01/12 01:44:20;;;;;;;76.93;30.80;;;-4.60;99.90;;;;;;4966149;28;20118;-72
2024/01/12 01:46:46;;;;;;;75.78;32.67;;;-4.60;99.90;;;;;;4968800;28;20018;-72
2024/01/12 01:49:12;;;;;;;65.72;31.08;;;-4.60;99.90;;;;;;4963971;28;20418;-72
2024/01/12 01:51:39;;;;;;;80.57;33.00;;;-4.70;99.90;;;;;;4968837;28;20390;-72
2024/01/12 01:54:05;;;;;;;71.97;31.85;;;-4.70;99.90;;;;;;4970022;28;20093;-72
2024/01/12 01:56:30;;;;;;;66.03;30.85;;;-4.70;99.90;;;;;;4968984;28;20035;-72
2024/01/12 01:58:56;;;;;;;76.50;32.05;;;-4.70;99.90;;;;;;4969444;28;20114;-72
2024/01/12 02:01:22;;;;;;;77.88;32.60;;;-4.70;99.90;;;;;;4968948;28;20113;-72
2024/01/12 02:03:48;;;;;;;73.68;31.60;;;-4.70;99.90;;;;;;4971155;28;20042;-72
2024/01/12 02:06:15;;;;;;;69.63;31.02;;;-4.70;99.90;;;;;;4967034;28;20034;-72
2024/01/12 02:08:41;;;;;;;77.88;31.67;;;-4.70;99.90;;;;;;4968242;28;20042;-72
2024/01/12 02:11:08;;;;;;;68.75;30.48;;;-4.70;99.90;;;;;;4965976;28;20030;-72
2024/01/12 02:13:33;;;;;;;69.43;31.25;;;-4.80;99.90;;;;;;4968673;28;20498;-72
2024/01/12 02:16:00;;;;;;;74.65;33.75;;;-4.80;99.90;;;;;;4962996;28;20038;-72
2024/01/12 02:18:25;;;;;;;70.97;32.05;;;-4.80;99.90;;;;;;4967990;28;20482;-72
2024/01/12 02:20:57;;;;;;;77.88;34.05;;;-4.80;99.90;;;;;;4970105;28;20114;-72
2024/01/12 02:23:22;;;;;;;80.38;33.90;;;-4.90;99.90;;;;;;4968334;28;20493;-72
2024/01/12 02:25:48;;;;;;;85.90;34.00;;;-4.90;99.90;;;;;;4966508;28;20088;-72
2024/01/12 02:28:14;;;;;;;77.30;33.35;;;-4.90;99.90;;;;;;4968808;28;20030;-72
2024/01/12 02:30:40;;;;;;;76.53;31.63;;;-4.80;99.90;;;;;;4966266;28;20034;-72
2024/01/12 02:33:07;;;;;;;68.20;30.35;;;-4.90;99.90;;;;;;4969728;28;20506;-72
2024/01/12 02:35:32;;;;;;;75.28;33.55;;;-4.90;99.90;;;;;;4969354;28;20553;-72
2024/01/12 02:37:58;;;;;;;77.10;35.83;;;-4.90;99.90;;;;;;4967329;28;20038;-72
2024/01/12 02:40:24;;;;;;;72.00;32.35;;;-4.90;99.90;;;;;;4967395;28;20494;-72
2024/01/12 02:42:50;;;;;;;67.75;29.42;;;-4.90;99.90;;;;;;4967463;28;20035;-72
2024/01/12 02:45:15;;;;;;;70.00;28.75;;;-4.90;99.90;;;;;;4966517;28;20034;-73
2024/01/12 02:47:42;;;;;;;67.03;28.48;;;-4.90;99.90;;;;;;4966947;28;20398;-72
2024/01/12 02:50:08;;;;;;;62.60;28.98;;;-4.90;99.90;;;;;;4967937;28;20058;-72
2024/01/12 02:52:35;;;;;;;64.45;29.02;;;-4.90;99.90;;;;;;4969392;28;20057;-72
2024/01/12 02:55:05;;;;;;;71.82;29.08;;;-4.90;99.90;;;;;;4969000;28;20022;-72
2024/01/12 02:57:31;;;;;;;67.03;28.95;;;-4.90;99.90;;;;;;4966775;28;20047;-72
2024/01/12 02:59:57;;;;;;;70.78;29.17;;;-4.90;99.90;;;;;;4967102;28;20039;-72
2024/01/12 03:02:24;;;;;;;67.75;29.90;;;-4.90;99.90;;;;;;4967817;28;20034;-72
2024/01/12 03:04:50;;;;;;;63.28;29.55;;;-4.90;99.90;;;;;;4966326;28;20413;-72
2024/01/12 03:07:16;;;;;;;59.10;27.02;;;-4.90;99.90;;;;;;4967856;28;20019;-72
2024/01/12 03:09:41;;;;;;;65.38;27.88;;;-4.90;99.90;;;;;;4969196;28;20034;-72
2024/01/12 03:12:07;;;;;;;69.78;28.98;;;-4.90;99.90;;;;;;4968118;28;20039;-72
2024/01/12 03:14:33;;;;;;;63.17;26.65;;;-4.90;99.90;;;;;;4966557;28;20561;-72
2024/01/12 03:16:58;;;;;;;68.00;29.20;;;-4.90;99.90;;;;;;4967888;28;20046;-72
2024/01/12 03:19:24;;;;;;;61.50;28.30;;;-4.90;99.90;;;;;;4967287;28;20035;-72
2024/01/12 03:21:49;;;;;;;70.15;29.30;;;-4.90;99.90;;;;;;4968256;28;20085;-72
2024/01/12 03:24:15;;;;;;;64.55;28.45;;;-4.90;99.90;;;;;;4966696;28;20029;-72
2024/01/12 03:26:41;;;;;;;64.57;27.83;;;-4.90;99.90;;;;;;4966822;28;20552;-72
2024/01/12 03:29:06;;;;;;;65.72;28.63;;;-4.90;99.90;;;;;;4967602;28;20472;-72
2024/01/12 03:31:33;;;;;;;64.30;28.88;;;-4.90;99.90;;;;;;4965362;28;22572;-72
2024/01/12 03:33:58;;;;;;;66.50;27.98;;;-4.90;99.90;;;;;;4968042;28;20078;-72
2024/01/12 03:36:26;;;;;;;71.82;31.70;;;-4.90;99.90;;;;;;4965477;28;20441;-72
2024/01/12 03:38:54;;;;;;;72.50;31.38;;;-4.90;99.90;;;;;;4967506;28;20031;-72
2024/01/12 03:41:20;;;;;;;77.15;32.00;;;-4.90;99.90;;;;;;4966398;28;20122;-72
2024/01/12 03:43:46;;;;;;;79.38;30.73;;;-4.90;99.90;;;;;;4969158;28;20042;-72
2024/01/12 03:46:12;;;;;;;78.82;32.80;;;-4.90;99.90;;;;;;4968749;28;20394;-72
2024/01/12 03:48:39;;;;;;;69.03;31.15;;;-4.90;99.90;;;;;;4965633;28;20465;-72
2024/01/12 03:51:04;;;;;;;70.20;31.67;;;-4.90;99.90;;;;;;4965219;28;20023;-71
2024/01/12 03:53:30;;;;;;;75.53;31.83;;;-4.90;99.90;;;;;;4968715;28;20692;-71
2024/01/12 03:55:56;;;;;;;75.63;32.13;;;-4.90;99.90;;;;;;4967468;28;20063;-72
2024/01/12 03:58:22;;;;;;;78.75;31.08;;;-4.80;99.90;;;;;;4969207;28;20035;-71
2024/01/12 04:00:47;;;;;;;73.28;32.22;;;-4.90;99.90;;;;;;4967544;28;20023;-72
2024/01/12 04:03:13;;;;;;;70.43;30.20;;;-5.00;99.90;;;;;;4967676;28;20054;-72
2024/01/12 04:05:39;;;;;;;74.68;30.45;;;-5.00;99.90;;;;;;4966337;28;20023;-71
2024/01/12 04:08:05;;;;;;;72.80;31.40;;;-5.10;99.90;;;;;;4967971;28;20131;-72
2024/01/12 04:10:30;;;;;;;70.55;28.65;;;-5.10;99.90;;;;;;4965854;28;20113;-72
2024/01/12 04:12:57;;;;;;;71.68;29.77;;;-5.10;99.90;;;;;;4969398;28;20069;-72
2024/01/12 04:15:22;;;;;;;82.68;32.70;;;-5.10;99.90;;;;;;4971863;28;20035;-71
2024/01/12 04:17:48;;;;;;;71.03;31.13;;;-5.10;99.90;;;;;;4972995;28;20031;-72
2024/01/12 04:20:14;;;;;;;72.18;31.35;;;-5.10;99.90;;;;;;4971537;28;20027;-72
2024/01/12 04:22:39;;;;;;;67.03;29.42;;;-5.10;99.90;;;;;;4968648;28;20482;-72
2024/01/12 04:25:06;;;;;;;71.10;32.00;;;-5.10;99.90;;;;;;4970875;28;20513;-72
2024/01/12 04:27:31;;;;;;;68.60;30.73;;;-5.10;99.90;;;;;;4972379;28;20058;-72
2024/01/12 04:29:57;;;;;;;64.95;28.00;;;-5.20;99.90;;;;;;4969582;28;20035;-72
2024/01/12 04:32:22;;;;;;;69.03;29.92;;;-5.20;99.90;;;;;;4970535;28;20061;-72
2024/01/12 04:34:48;;;;;;;70.82;30.48;;;-5.20;99.90;;;;;;4971445;28;20043;-72
2024/01/12 04:37:13;;;;;;;66.97;30.10;;;-5.20;99.90;;;;;;4970188;28;20141;-72
2024/01/12 04:39:40;;;;;;;72.32;31.33;;;-5.20;99.90;;;;;;4968044;28;20042;-72
2024/01/12 04:42:06;;;;;;;68.38;29.45;;;-5.20;99.90;;;;;;4972175;28;20027;-72
2024/01/12 04:44:32;;;;;;;71.38;31.92;;;-5.20;99.90;;;;;;4970159;28;20086;-72
2024/01/12 04:46:57;;;;;;;78.07;32.70;;;-5.30;99.90;;;;;;4966518;28;20114;-71
2024/01/12 04:49:23;;;;;;;70.32;30.25;;;-5.30;99.90;;;;;;4971350;28;20050;-72
2024/01/12 04:51:48;;;;;;;67.90;29.35;;;-5.30;99.90;;;;;;4966317;28;20080;-71
2024/01/12 04:54:14;;;;;;;74.13;30.27;;;-5.30;99.90;;;;;;4959720;28;20053;-72
2024/01/12 04:56:39;;;;;;;71.65;29.98;;;-5.30;99.90;;;;;;4968207;28;20416;-72
2024/01/12 04:59:05;;;;;;;67.13;30.10;;;-5.30;99.90;;;;;;4969853;28;20039;-72
2024/01/12 05:01:31;;;;;;;69.38;29.45;;;-5.30;99.90;;;;;;4972813;28;20027;-72
2024/01/12 05:03:56;;;;;;;74.40;30.75;;;-5.30;99.90;;;;;;4970271;28;20070;-72
2024/01/12 05:06:22;;;;;;;65.43;29.45;;;-5.30;99.90;;;;;;4966355;28;20027;-72
2024/01/12 05:08:47;;;;;;;72.72;30.15;;;-5.30;99.90;;;;;;4970128;28;20054;-72
2024/01/12 05:11:14;;;;;;;62.95;27.38;;;-5.30;99.90;;;;;;4971896;28;20718;-72
2024/01/12 05:13:39;;;;;;;78.95;30.23;;;-5.30;99.90;;;;;;4972279;28;20027;-72
2024/01/12 05:16:05;;;;;;;64.10;27.90;;;-5.30;99.90;;;;;;4970807;28;20640;-72
2024/01/12 05:18:30;;;;;;;67.05;28.92;;;-5.30;99.90;;;;;;4969877;28;20374;-72
2024/01/12 05:20:56;;;;;;;72.07;30.08;;;-5.30;99.90;;;;;;4971080;28;20031;-72
2024/01/12 05:23:22;;;;;;;70.38;29.20;;;-5.30;99.90;;;;;;4973524;28;20046;-73
2024/01/12 05:25:47;;;;;;;60.30;27.08;;;-5.30;99.90;;;;;;4967581;28;20038;-72
2024/01/12 05:28:13;;;;;;;62.78;29.33;;;-5.30;99.90;;;;;;4970383;28;20026;-72
2024/01/12 05:30:38;;;;;;;71.32;30.95;;;-5.30;99.90;;;;;;4969520;28;20097;-73
2024/01/12 05:33:04;;;;;;;74.85;31.08;;;-5.30;99.90;;;;;;4969931;28;20839;-74
2024/01/12 05:35:30;;;;;;;64.97;29.00;;;-5.20;99.90;;;;;;4969461;28;20117;-74
2024/01/12 05:37:56;;;;;;;62.30;27.42;;;-5.30;99.90;;;;;;4969452;28;20510;-74
2024/01/12 05:40:21;;;;;;;67.82;29.48;;;-5.30;99.90;;;;;;4968234;28;20110;-74
2024/01/12 05:42:47;;;;;;;70.57;29.40;;;-5.30;99.90;;;;;;4971682;28;20037;-73
2024/01/12 05:45:12;;;;;;;66.55;28.77;;;-5.20;99.90;;;;;;4965020;28;20402;-74
2024/01/12 05:47:38;;;;;;;65.63;28.92;;;-5.20;99.90;;;;;;4971952;28;20085;-72
2024/01/12 05:50:06;;;;;;;68.78;29.00;;;-5.20;99.90;;;;;;4969514;28;20038;-71
2024/01/12 05:52:33;;;;;;;60.80;27.52;;;-5.20;99.90;;;;;;4967603;28;20023;-73
2024/01/12 05:54:59;;;;;;;60.17;27.23;;;-5.20;99.90;;;;;;4965792;28;20689;-72
2024/01/12 05:57:25;;;;;;;66.38;28.67;;;-5.30;99.90;;;;;;4965948;28;20023;-72
2024/01/12 05:59:51;;;;;;;59.85;28.60;;;-5.30;99.90;;;;;;4969248;28;20050;-71
2024/01/12 06:02:17;;;;;;;63.00;26.67;;;-5.30;99.90;;;;;;4970537;28;20030;-71
2024/01/12 06:04:42;;;;;;;62.80;29.10;;;-5.30;99.90;;;;;;4968830;28;20039;-71
2024/01/12 06:07:08;;;;;;;63.83;30.33;;;-5.30;99.90;;;;;;4968226;28;20085;-71
2024/01/12 06:09:33;;;;;;;80.97;32.13;;;-5.30;99.90;;;;;;4969774;28;20027;-71
2024/01/12 06:11:59;;;;;;;74.43;32.40;;;-5.30;99.90;;;;;;4969016;28;20438;-72
2024/01/12 06:14:25;;;;;;;73.45;31.30;;;-5.30;99.90;;;;;;4966794;28;20044;-71
2024/01/12 06:16:51;;;;;;;75.03;32.35;;;-5.30;99.90;;;;;;4968551;28;20031;-71
2024/01/12 06:19:16;;;;;;;70.22;31.13;;;-5.40;99.90;;;;;;4967402;28;20030;-71
2024/01/12 06:21:42;;;;;;;64.07;28.73;;;-5.40;99.90;;;;;;4966030;28;20125;-71
2024/01/12 06:24:09;;;;;;;67.55;29.30;;;-5.40;99.90;;;;;;4968540;28;20038;-73
2024/01/12 06:26:34;;;;;;;62.88;29.38;;;-5.40;99.90;;;;;;4966872;28;20026;-72
2024/01/12 06:29:00;;;;;;;65.50;29.20;;;-5.40;99.90;;;;;;4963884;28;20030;-70
2024/01/12 06:31:32;;;;;;;74.65;29.65;;;-5.40;99.90;;;;;;4962238;28;20565;-72
2024/01/12 06:33:57;;;;;;;71.82;30.73;;;-5.40;99.90;;;;;;4964086;28;20083;-72
2024/01/12 06:36:23;;;;;;;70.57;30.42;;;-5.40;99.90;;;;;;4963405;28;20578;-72
2024/01/12 06:38:49;;;;;;;73.05;31.33;;;-5.40;99.90;;;;;;4968633;28;20031;-71
2024/01/12 06:41:14;;;;;;;71.47;30.80;;;-5.40;99.90;;;;;;4970041;28;20098;-72
2024/01/12 06:43:40;;;;;;;67.63;27.55;;;-5.40;99.90;;;;;;4966027;28;20356;-72
2024/01/12 06:46:06;;;;;;;68.32;30.98;;;-5.40;99.90;;;;;;4962189;28;20041;-71
2024/01/12 06:48:31;;;;;;;69.47;29.38;;;-5.40;99.90;;;;;;4967185;28;20379;-71
2024/01/12 06:50:57;;;;;;;67.63;29.00;;;-5.40;99.90;;;;;;4963056;28;20549;-72
2024/01/12 06:53:23;;;;;;;65.85;29.80;;;-5.40;99.90;;;;;;4962855;28;20089;-72
2024/01/12 06:55:48;;;;;;;77.18;31.30;;;-5.40;99.90;;;;;;4958455;28;20483;-72
2024/01/12 06:58:14;;;;;;;68.70;31.73;;;-5.50;99.90;;;;;;4967846;28;20054;-71
2024/01/12 07:00:39;;;;;;;76.60;30.70;;;-5.50;99.90;;;;;;4966180;28;20506;-70
2024/01/12 07:03:06;;;;;;;70.88;28.70;;;-5.50;99.90;;;;;;4968666;28;20114;-71
2024/01/12 07:05:31;;;;;;;70.28;29.25;;;-5.60;99.90;;;;;;4967626;28;20026;-69
2024/01/12 07:07:57;;;;;;;67.10;30.63;;;-5.60;99.90;;;;;;4968829;28;20031;-70
2024/01/12 07:10:22;;;;;;;70.15;29.08;;;-5.60;99.90;;;;;;4967177;28;20031;-71
2024/01/12 07:12:51;;;;;;;68.13;30.65;;;-5.60;99.90;;;;;;4962608;28;20034;-70
2024/01/12 07:15:17;;;;;;;68.60;29.05;;;-5.60;99.90;;;;;;4969353;28;20031;-70
2024/01/12 07:17:43;;;;;;;75.97;30.67;;;-5.60;99.90;;;;;;4962916;28;20692;-70
2024/01/12 07:20:10;;;;;;;74.88;30.55;;;-5.60;99.90;;;;;;4967381;28;20038;-72
2024/01/12 07:22:36;;;;;;;66.50;29.42;;;-5.70;99.90;;;;;;4969846;28;20061;-70
2024/01/12 07:25:02;;;;;;;69.07;30.70;;;-5.70;99.90;;;;;;4968179;28;20041;-70
2024/01/12 07:27:27;;;;;;;71.25;29.95;;;-5.70;99.90;;;;;;4971177;28;20022;-70
2024/01/12 07:29:53;;;;;;;69.80;30.70;;;-5.70;99.90;;;;;;4968741;28;20039;-70
2024/01/12 07:32:18;;;;;;;75.72;30.65;;;-5.70;99.90;;;;;;4966498;28;20035;-70
2024/01/12 07:34:44;;;;;;;74.43;31.83;;;-5.80;99.90;;;;;;4966182;28;20113;-73
2024/01/12 07:37:10;;;;;;;68.43;29.15;;;-5.70;99.90;;;;;;4965098;28;20035;-71
2024/01/12 07:39:35;;;;;;;68.78;29.05;;;-5.70;99.90;;;;;;4969086;28;20031;-71
2024/01/12 07:42:01;;;;;;;79.57;35.63;;;-5.70;99.90;;;;;;4970875;28;20038;-71
2024/01/12 07:44:26;;;;;;;90.15;38.67;;;-5.60;99.90;;;;;;4971843;28;20023;-71
2024/01/12 07:46:52;;;;;;;71.78;31.50;;;-5.60;99.90;;;;;;4969673;28;20027;-72
2024/01/12 07:49:18;;;;;;;76.28;32.83;;;-5.60;99.90;;;;;;4970478;28;20023;-70
2024/01/12 07:51:43;;;;;;;72.88;30.80;;;-5.60;99.90;;;;;;4972446;28;20102;-72
2024/01/12 07:54:09;;;;;;;72.60;31.00;;;-5.60;99.90;;;;;;4972408;28;20034;-72
2024/01/12 07:56:35;;;;;;;72.32;30.00;;;-5.60;99.90;;;;;;4976465;28;20113;-71
2024/01/12 07:59:00;;;;;;;73.45;30.08;;;-5.70;99.90;;;;;;4975315;28;20026;-72
2024/01/12 08:01:26;;;;;;;72.43;29.92;;;-5.60;99.90;;;;;;4973732;28;20031;-73
2024/01/12 08:03:52;;;;;;;66.82;29.88;;;-5.60;99.90;;;;;;4977850;28;20039;-73
2024/01/12 08:06:18;;;;;;;68.65;28.63;;;-5.60;99.90;;;;;;4974219;28;20117;-71
2024/01/12 08:08:43;;;;;;;72.82;29.08;;;-5.60;99.90;;;;;;4975448;28;20169;-71
2024/01/12 08:11:09;;;;;;;66.68;28.05;;;-5.60;99.90;;;;;;4974375;28;20041;-71
2024/01/12 08:13:34;;;;;;;70.07;28.67;;;-5.50;99.90;;;;;;4973863;28;20023;-71
2024/01/12 08:16:00;;;;;;;69.60;28.77;;;-5.50;99.90;;;;;;4975483;28;20042;-72
2024/01/12 08:18:26;;;;;;;64.95;27.30;;;-5.50;99.90;;;;;;4973820;28;20031;-71
2024/01/12 08:20:51;;;;;;;66.45;27.08;;;-5.40;99.90;;;;;;4975112;28;20027;-72
2024/01/12 08:23:17;;;;;;;62.88;28.50;;;-5.40;99.90;;;;;;4975348;28;20019;-72
2024/01/12 08:25:43;;;;;;;66.53;27.95;;;-5.40;99.90;;;;;;4972940;28;20053;-72
2024/01/12 08:28:08;;;;;;;68.68;29.58;;;-5.30;99.90;;;;;;4974399;28;20371;-72
2024/01/12 08:30:34;;;;;;;67.68;26.58;;;-5.30;99.90;;;;;;4973942;28;20019;-71
2024/01/12 08:33:00;;;;;;;59.55;27.05;;;-5.20;99.90;;;;;;4976333;28;20105;-71
2024/01/12 08:35:26;;;;;;;63.33;27.70;;;-5.20;99.90;;;;;;4975699;28;20042;-72
2024/01/12 08:37:52;;;;;;;65.53;28.95;;;-5.10;99.90;;;;;;4976461;28;20348;-72
2024/01/12 08:40:17;;;;;;;67.82;28.80;;;-5.10;99.90;;;;;;4976820;28;20410;-72
2024/01/12 08:42:43;;;;;;;66.50;29.50;;;-5.00;99.90;;;;;;4973343;28;20114;-72
2024/01/12 08:45:09;;;;;;;70.07;30.88;;;-5.00;99.90;;;;;;4971069;28;20454;-72
2024/01/12 08:47:34;;;;;;;74.93;31.65;;;-4.90;99.90;;;;;;4975863;28;20022;-71
2024/01/12 08:50:00;;;;;;;70.95;32.22;;;-4.90;99.90;;;;;;4976296;28;20054;-72
2024/01/12 08:52:27;;;;;;;70.82;29.85;;;-4.90;99.90;;;;;;4975440;28;20026;-72
2024/01/12 08:54:53;;;;;;;71.47;31.38;;;-4.80;99.90;;;;;;4973881;28;20437;-72
2024/01/12 08:57:18;;;;;;;208.20;83.03;;;-4.80;99.90;;;;;;4973508;28;20031;-72
2024/01/12 08:59:44;;;;;;;108.95;43.20;;;-4.70;99.90;;;;;;4970079;28;20037;-72
2024/01/12 09:02:09;;;;;;;71.35;30.30;;;-4.70;99.90;;;;;;4973816;28;20602;-73
2024/01/12 09:04:35;;;;;;;76.63;33.67;;;-4.60;99.90;;;;;;4970066;28;20035;-71
2024/01/12 09:07:01;;;;;;;66.70;31.92;;;-4.60;99.90;;;;;;4973218;28;20065;-71
2024/01/12 09:09:26;;;;;;;71.13;32.55;;;-4.60;99.90;;;;;;4973260;28;20034;-71
2024/01/12 09:11:52;;;;;;;75.70;33.42;;;-4.50;99.90;;;;;;4973240;28;20027;-72
2024/01/12 09:14:18;;;;;;;77.38;32.55;;;-4.50;99.90;;;;;;4971287;28;20030;-72
2024/01/12 09:16:43;;;;;;;73.72;33.15;;;-4.40;99.90;;;;;;4971822;28;20039;-72
2024/01/12 09:19:09;;;;;;;73.78;32.28;;;-4.40;99.90;;;;;;4972872;28;20106;-72
2024/01/12 09:21:35;;;;;;;79.28;33.80;;;-4.30;99.90;;;;;;4968485;28;20035;-71
2024/01/12 09:24:00;;;;;;;72.22;33.25;;;-4.30;99.90;;;;;;4972439;28;20037;-71
2024/01/12 09:26:26;;;;;;;76.05;31.77;;;-4.30;99.90;;;;;;4968824;28;20027;-71
2024/01/12 09:28:51;;;;;;;72.25;31.00;;;-4.20;99.90;;;;;;4973434;28;20031;-71
2024/01/12 09:31:17;;;;;;;73.85;33.90;;;-4.20;99.90;;;;;;4966437;28;20042;-71
2024/01/12 09:33:43;;;;;;;71.70;30.63;;;-4.20;99.90;;;;;;4971377;28;20031;-71
2024/01/12 09:36:08;;;;;;;66.72;31.58;;;-4.20;99.90;;;;;;4968447;28;20417;-71
2024/01/12 09:38:34;;;;;;;70.88;30.63;;;-4.10;99.90;;;;;;4969717;28;20022;-71
2024/01/12 09:41:02;;;;;;;70.05;30.35;;;-4.10;99.90;;;;;;4970088;28;20082;-71
2024/01/12 09:43:29;;;;;;;67.80;30.80;;;-4.10;99.90;;;;;;4972129;28;20450;-71
2024/01/12 09:46:05;;;;;;;70.00;31.52;;;-4.10;99.90;;;;;;4971941;28;20027;-71
2024/01/12 09:48:30;;;;;;;57.92;27.05;;;-4.00;99.90;;;;;;4970059;28;20501;-71
2024/01/12 09:50:58;;;;;;;65.30;28.77;;;-4.00;99.90;;;;;;4969959;28;20019;-72
2024/01/12 09:53:24;;;;;;;65.88;29.55;;;-4.00;99.90;;;;;;4967770;28;20491;-71
2024/01/12 09:55:49;;;;;;;66.35;27.98;;;-3.90;99.90;;;;;;4969754;28;20385;-71
2024/01/12 09:58:17;;;;;;;69.03;31.38;;;-3.90;99.90;;;;;;4966391;28;20019;-71
2024/01/12 10:00:46;;;;;;;72.38;31.15;;;-3.90;99.90;;;;;;4972874;28;20026;-72
2024/01/12 10:03:13;;;;;;;63.70;30.55;;;-3.80;99.90;;;;;;4969549;28;20060;-72
2024/01/12 10:05:40;;;;;;;66.15;27.98;;;-3.70;99.90;;;;;;4960244;28;20046;-72
2024/01/12 10:08:09;;;;;;;63.42;29.00;;;-3.70;99.90;;;;;;4963710;28;20015;-71
2024/01/12 10:10:34;;;;;;;63.28;27.98;;;-3.70;99.90;;;;;;4964209;28;20023;-72
2024/01/12 10:13:03;;;;;;;65.40;30.25;;;-3.60;99.90;;;;;;4961105;28;20027;-71
2024/01/12 10:15:32;;;;;;;66.88;30.55;;;-3.50;99.90;;;;;;4970258;28;20519;-72
2024/01/12 10:17:58;;;;;;;61.30;28.27;;;-3.50;99.90;;;;;;4966391;28;20046;-72
2024/01/12 10:20:23;;;;;;;67.05;29.77;;;-3.40;99.90;;;;;;4965145;28;20037;-72
2024/01/12 10:22:56;;;;;;;67.68;29.48;;;-3.40;99.90;;;;;;4964911;28;20027;-72
2024/01/12 10:25:22;;;;;;;50.08;21.95;;;-3.30;99.90;;;;;;4962257;28;20445;-72
2024/01/12 10:27:57;;;;;;;64.20;29.35;;;-3.20;99.90;;;;;;4969572;28;20062;-72
2024/01/12 10:30:23;;;;;;;63.85;28.20;;;-3.20;99.90;;;;;;4963736;28;20121;-72
2024/01/12 10:32:51;;;;;;;70.25;30.15;;;-3.10;99.90;;;;;;4963107;28;20066;-70
2024/01/12 10:35:17;;;;;;;66.30;30.88;;;-3.10;99.90;;;;;;4958645;28;20031;-72
2024/01/12 10:37:44;;;;;;;59.80;28.13;;;-3.00;99.90;;;;;;4963695;28;20122;-72
2024/01/12 10:40:13;;;;;;;66.47;30.13;;;-3.00;99.90;;;;;;4963317;28;20577;-70
2024/01/12 10:42:55;;;;;;;67.03;29.63;;;-2.90;99.90;;;;;;4959103;28;20024;-70
2024/01/12 10:45:21;;;;;;;70.78;32.42;;;-2.90;99.90;;;;;;4959507;28;20046;-70
2024/01/12 10:48:09;;;;;;;65.32;29.42;;;-2.80;99.90;;;;;;4964741;28;20023;-70
2024/01/12 10:50:42;;;;;;;71.18;30.80;;;-2.80;99.90;;;;;;4957560;28;20021;-72
2024/01/12 10:53:20;;;;;;;64.47;29.38;;;-2.80;99.90;;;;;;4957868;28;20030;-72
2024/01/12 10:55:54;;;;;;;68.40;30.10;;;-2.70;99.90;;;;;;4961894;28;20030;-72
2024/01/12 10:58:20;;;;;;;63.47;29.70;;;-2.70;99.90;;;;;;4960711;28;20034;-71
2024/01/12 11:00:47;;;;;;;64.57;30.58;;;-2.70;99.90;;;;;;4959950;28;20038;-72
2024/01/12 11:03:18;;;;;;;66.78;31.02;;;-2.60;99.90;;;;;;4965295;28;20459;-73
2024/01/12 11:05:44;;;;;;;68.13;30.75;;;-2.50;99.90;;;;;;4967184;28;20108;-72
2024/01/12 11:08:11;;;;;;;80.65;32.25;;;-2.50;99.90;;;;;;4956515;28;20030;-72
2024/01/12 11:10:45;;;;;;;69.25;31.42;;;-2.50;99.90;;;;;;4967581;28;20029;-72
2024/01/12 11:13:13;;;;;;;67.65;32.33;;;-2.40;99.90;;;;;;4968741;28;20098;-72
2024/01/12 11:15:40;;;;;;;67.47;31.60;;;-2.40;99.90;;;;;;4965191;28;20035;-72
2024/01/12 11:18:09;;;;;;;76.20;32.05;;;-2.30;99.90;;;;;;4970457;28;20110;-72
2024/01/12 11:20:35;;;;;;;66.45;31.20;;;-2.30;99.90;;;;;;4971799;28;20054;-72
2024/01/12 11:23:00;;;;;;;63.70;31.13;;;-2.30;99.90;;;;;;4966347;28;21378;-72
2024/01/12 11:25:26;;;;;;;71.20;31.48;;;-2.20;99.90;;;;;;4967516;28;20085;-72
2024/01/12 11:27:52;;;;;;;63.33;31.85;;;-2.20;99.90;;;;;;4968977;28;20046;-72
2024/01/12 11:30:20;;;;;;;73.28;33.60;;;-2.10;99.90;;;;;;4970164;28;20024;-72
2024/01/12 11:32:46;;;;;;;76.13;34.53;;;-2.10;99.90;;;;;;4966957;28;20019;-72
2024/01/12 11:35:13;;;;;;;70.72;33.28;;;-2.00;99.90;;;;;;4967289;28;20074;-72
2024/01/12 11:37:41;;;;;;;70.10;34.45;;;-2.00;99.90;;;;;;4965896;28;20486;-72
2024/01/12 11:40:09;;;;;;;72.00;33.17;;;-2.00;99.90;;;;;;4968575;28;20041;-72
2024/01/12 11:42:39;;;;;;;79.22;32.50;;;-1.90;99.90;;;;;;4970254;28;20027;-72
2024/01/12 11:45:10;;;;;;;73.65;33.42;;;-1.90;99.90;;;;;;4967797;28;20069;-72
2024/01/12 11:47:41;;;;;;;79.75;33.20;;;-1.90;99.90;;;;;;4969839;28;20050;-72
2024/01/12 11:50:08;;;;;;;66.65;32.17;;;-1.90;99.90;;;;;;4968781;28;20029;-72
2024/01/12 11:52:34;;;;;;;68.60;33.00;;;-1.80;99.90;;;;;;4962772;28;20593;-72
2024/01/12 11:55:00;;;;;;;70.43;33.45;;;-1.80;99.90;;;;;;4967068;28;20565;-72
2024/01/12 11:57:26;;;;;;;68.78;31.67;;;-1.80;99.90;;;;;;4968788;28;20098;-72
2024/01/12 11:59:55;;;;;;;75.57;33.05;;;-1.80;99.90;;;;;;4968939;28;20442;-72
2024/01/12 12:02:23;;;;;;;72.13;32.50;;;-1.70;99.90;;;;;;4968884;28;20477;-72
2024/01/12 12:04:51;;;;;;;67.20;32.20;;;-1.70;99.90;;;;;;4968972;28;20113;-72
2024/01/12 12:07:19;;;;;;;67.78;33.90;;;-1.60;99.90;;;;;;4967615;28;20059;-72
2024/01/12 12:09:46;;;;;;;72.65;32.03;;;-1.60;99.90;;;;;;4967739;28;20548;-72
2024/01/12 12:12:12;;;;;;;70.30;34.40;;;-1.60;99.90;;;;;;4965241;28;20440;-72
2024/01/12 12:14:37;;;;;;;76.90;34.35;;;-1.50;99.90;;;;;;4966692;28;20037;-70
2024/01/12 12:17:03;;;;;;;74.72;35.78;;;-1.60;99.90;;;;;;4964873;28;20054;-70
2024/01/12 12:19:30;;;;;;;73.47;34.55;;;-1.50;99.90;;;;;;4962615;28;20093;-71
2024/01/12 12:21:56;;;;;;;74.75;33.55;;;-1.50;99.90;;;;;;4965821;28;20046;-70